sensor_id;sensor_type;location;lat;lon;timestamp;temperature;humidity
36186;DHT22;22228;53.222;7.446;2022-12-07T00:00:05;2.80;99.90
36186;DHT22;22228;53.222;7.446;2022-12-07T00:02:26;2.70;99.90
36186;DHT22;22228;53.222;7.446;2022-12-07T00:04:48;2.60;99.90
36186;DHT22;22228;53.222;7.446;2022-12-07T00:07:08;2.60;99.90
36186;DHT22;22228;53.222;7.446;2022-12-07T00:09:29;2.60;99.90
36186;DHT22;22228;53.222;7.446;2022-12-07T00:11:50;2.50;99.90
36186;DHT22;22228;53.222;7.446;2022-12-07T00:14:14;2.50;99.90
36186;DHT22;22228;53.222;7.446;2022-12-07T00:16:35;2.40;99.90
36186;DHT22;22228;53.222;7.446;2022-12-07T00:18:56;2.30;99.90
36186;DHT22;22228;53.222;7.446;2022-12-07T00:21:20;2.30;99.90
36186;DHT22;22228;53.222;7.446;2022-12-07T00:23:43;2.30;99.90
36186;DHT22;22228;53.222;7.446;2022-12-07T00:26:05;2.20;99.90
36186;DHT22;22228;53.222;7.446;2022-12-07T00:28:25;2.20;99.90
36186;DHT22;22228;53.222;7.446;2022-12-07T00:30:46;2.20;99.90
36186;DHT22;22228;53.222;7.446;2022-12-07T00:33:07;2.20;99.90
36186;DHT22;22228;53.222;7.446;2022-12-07T00:35:27;2.20;99.90
36186;DHT22;22228;53.222;7.446;2022-12-07T00:37:49;2.10;99.90
36186;DHT22;22228;53.222;7.446;2022-12-07T00:40:10;2.10;99.90
36186;DHT22;22228;53.222;7.446;2022-12-07T00:42:31;2.10;99.90
36186;DHT22;22228;53.222;7.446;2022-12-07T00:44:51;2.10;99.90
36186;DHT22;22228;53.222;7.446;2022-12-07T00:47:12;2.20;99.90
36186;DHT22;22228;53.222;7.446;2022-12-07T00:49:32;2.20;99.90
36186;DHT22;22228;53.222;7.446;2022-12-07T00:51:53;2.20;99.90
36186;DHT22;22228;53.222;7.446;2022-12-07T00:54:15;2.20;99.90
36186;DHT22;22228;53.222;7.446;2022-12-07T00:56:35;2.30;99.90
36186;DHT22;22228;53.222;7.446;2022-12-07T00:58:57;2.30;99.90
36186;DHT22;22228;53.222;7.446;2022-12-07T01:01:17;2.40;99.90
36186;DHT22;22228;53.222;7.446;2022-12-07T01:03:39;2.50;99.90
36186;DHT22;22228;53.222;7.446;2022-12-07T01:05:59;2.60;99.90
36186;DHT22;22228;53.222;7.446;2022-12-07T01:08:20;2.70;99.90
36186;DHT22;22228;53.222;7.446;2022-12-07T01:10:42;2.70;99.90
36186;DHT22;22228;53.222;7.446;2022-12-07T01:13:03;2.80;99.90
36186;DHT22;22228;53.222;7.446;2022-12-07T04:01:19;3.30;99.90
36186;DHT22;22228;53.222;7.446;2022-12-07T04:03:39;3.20;99.90
36186;DHT22;22228;53.222;7.446;2022-12-07T04:06:00;3.20;99.90
36186;DHT22;22228;53.222;7.446;2022-12-07T04:08:21;3.10;99.90
36186;DHT22;22228;53.222;7.446;2022-12-07T04:10:42;3.10;99.90
36186;DHT22;22228;53.222;7.446;2022-12-07T04:13:02;3.10;99.90
36186;DHT22;22228;53.222;7.446;2022-12-07T04:15:23;3.00;99.90
36186;DHT22;22228;53.222;7.446;2022-12-07T04:17:45;3.00;99.90
36186;DHT22;22228;53.222;7.446;2022-12-07T04:20:07;3.00;99.90
36186;DHT22;22228;53.222;7.446;2022-12-07T04:22:28;3.00;99.90
36186;DHT22;22228;53.222;7.446;2022-12-07T04:24:48;3.00;99.90
36186;DHT22;22228;53.222;7.446;2022-12-07T04:27:08;3.10;99.90
36186;DHT22;22228;53.222;7.446;2022-12-07T04:29:29;3.10;99.90
36186;DHT22;22228;53.222;7.446;2022-12-07T04:31:50;3.20;99.90
36186;DHT22;22228;53.222;7.446;2022-12-07T04:34:12;3.30;99.90
36186;DHT22;22228;53.222;7.446;2022-12-07T04:36:33;3.40;99.90
36186;DHT22;22228;53.222;7.446;2022-12-07T04:38:54;3.40;99.90
36186;DHT22;22228;53.222;7.446;2022-12-07T04:41:14;3.40;99.90
36186;DHT22;22228;53.222;7.446;2022-12-07T04:43:35;3.30;99.90
36186;DHT22;22228;53.222;7.446;2022-12-07T04:45:56;3.20;99.90
36186;DHT22;22228;53.222;7.446;2022-12-07T04:48:16;3.20;99.90
36186;DHT22;22228;53.222;7.446;2022-12-07T04:50:38;3.20;99.90
36186;DHT22;22228;53.222;7.446;2022-12-07T04:52:59;3.20;99.90
36186;DHT22;22228;53.222;7.446;2022-12-07T04:55:19;3.20;99.90
36186;DHT22;22228;53.222;7.446;2022-12-07T04:57:40;3.20;99.90
36186;DHT22;22228;53.222;7.446;2022-12-07T05:00:01;3.20;99.90
36186;DHT22;22228;53.222;7.446;2022-12-07T05:02:21;3.20;99.90
36186;DHT22;22228;53.222;7.446;2022-12-07T05:04:41;3.10;99.90
36186;DHT22;22228;53.222;7.446;2022-12-07T05:07:03;3.10;99.90
36186;DHT22;22228;53.222;7.446;2022-12-07T05:09:23;3.00;99.90
36186;DHT22;22228;53.222;7.446;2022-12-07T05:11:44;2.90;99.90
36186;DHT22;22228;53.222;7.446;2022-12-07T05:14:07;2.90;99.90
36186;DHT22;22228;53.222;7.446;2022-12-07T05:16:28;2.90;99.90
36186;DHT22;22228;53.222;7.446;2022-12-07T05:18:49;2.90;99.90
36186;DHT22;22228;53.222;7.446;2022-12-07T05:21:09;3.00;99.90
36186;DHT22;22228;53.222;7.446;2022-12-07T05:23:31;2.90;99.90
36186;DHT22;22228;53.222;7.446;2022-12-07T05:25:52;2.90;99.90
36186;DHT22;22228;53.222;7.446;2022-12-07T05:28:12;2.90;99.90
36186;DHT22;22228;53.222;7.446;2022-12-07T05:30:33;2.90;99.90
36186;DHT22;22228;53.222;7.446;2022-12-07T05:32:54;2.90;99.90
36186;DHT22;22228;53.222;7.446;2022-12-07T05:35:14;2.90;99.90
36186;DHT22;22228;53.222;7.446;2022-12-07T05:37:35;3.00;99.90
36186;DHT22;22228;53.222;7.446;2022-12-07T05:39:57;3.00;99.90
36186;DHT22;22228;53.222;7.446;2022-12-07T05:42:17;3.10;99.90
36186;DHT22;22228;53.222;7.446;2022-12-07T05:44:38;3.20;99.90
36186;DHT22;22228;53.222;7.446;2022-12-07T05:46:58;3.20;99.90
36186;DHT22;22228;53.222;7.446;2022-12-07T05:49:18;3.20;99.90
36186;DHT22;22228;53.222;7.446;2022-12-07T05:51:40;3.20;99.90
36186;DHT22;22228;53.222;7.446;2022-12-07T05:54:00;3.20;99.90
36186;DHT22;22228;53.222;7.446;2022-12-07T05:56:22;3.20;99.90
36186;DHT22;22228;53.222;7.446;2022-12-07T05:58:43;3.20;99.90
36186;DHT22;22228;53.222;7.446;2022-12-07T06:01:21;3.20;99.90
36186;DHT22;22228;53.222;7.446;2022-12-07T06:03:42;3.30;99.90
36186;DHT22;22228;53.222;7.446;2022-12-07T06:06:02;3.40;99.90
36186;DHT22;22228;53.222;7.446;2022-12-07T06:08:23;3.40;99.90
36186;DHT22;22228;53.222;7.446;2022-12-07T06:10:43;3.40;99.90
36186;DHT22;22228;53.222;7.446;2022-12-07T06:13:05;3.30;99.90
36186;DHT22;22228;53.222;7.446;2022-12-07T06:15:24;3.30;99.90
36186;DHT22;22228;53.222;7.446;2022-12-07T06:17:45;3.30;99.90
36186;DHT22;22228;53.222;7.446;2022-12-07T06:20:06;3.30;99.90
36186;DHT22;22228;53.222;7.446;2022-12-07T06:22:27;3.20;99.90
36186;DHT22;22228;53.222;7.446;2022-12-07T06:24:47;3.10;99.90
36186;DHT22;22228;53.222;7.446;2022-12-07T06:27:08;3.10;99.90
36186;DHT22;22228;53.222;7.446;2022-12-07T06:29:30;3.00;99.90
36186;DHT22;22228;53.222;7.446;2022-12-07T06:31:50;3.00;99.90
36186;DHT22;22228;53.222;7.446;2022-12-07T06:34:13;2.90;99.90
36186;DHT22;22228;53.222;7.446;2022-12-07T06:36:33;2.90;99.90
36186;DHT22;22228;53.222;7.446;2022-12-07T06:38:55;2.90;99.90
36186;DHT22;22228;53.222;7.446;2022-12-07T06:41:15;2.90;99.90
36186;DHT22;22228;53.222;7.446;2022-12-07T06:43:36;2.80;99.90
36186;DHT22;22228;53.222;7.446;2022-12-07T06:45:58;2.80;99.90
36186;DHT22;22228;53.222;7.446;2022-12-07T06:48:18;2.80;99.90
36186;DHT22;22228;53.222;7.446;2022-12-07T06:50:38;2.90;99.90
36186;DHT22;22228;53.222;7.446;2022-12-07T06:52:59;2.90;99.90
36186;DHT22;22228;53.222;7.446;2022-12-07T06:55:19;2.90;99.90
36186;DHT22;22228;53.222;7.446;2022-12-07T06:57:40;2.90;99.90
36186;DHT22;22228;53.222;7.446;2022-12-07T07:00:00;3.00;99.90
36186;DHT22;22228;53.222;7.446;2022-12-07T07:02:22;3.00;99.90
36186;DHT22;22228;53.222;7.446;2022-12-07T07:04:43;3.10;99.90
36186;DHT22;22228;53.222;7.446;2022-12-07T07:07:03;3.10;99.90
36186;DHT22;22228;53.222;7.446;2022-12-07T07:09:24;3.10;99.90
36186;DHT22;22228;53.222;7.446;2022-12-07T07:11:45;3.10;99.90
36186;DHT22;22228;53.222;7.446;2022-12-07T07:14:05;3.20;99.90
36186;DHT22;22228;53.222;7.446;2022-12-07T07:16:26;3.10;99.90
36186;DHT22;22228;53.222;7.446;2022-12-07T07:18:48;3.10;99.90
36186;DHT22;22228;53.222;7.446;2022-12-07T07:21:08;3.00;99.90
36186;DHT22;22228;53.222;7.446;2022-12-07T07:23:29;2.90;99.90
36186;DHT22;22228;53.222;7.446;2022-12-07T07:25:49;2.90;99.90
36186;DHT22;22228;53.222;7.446;2022-12-07T07:28:10;2.80;99.90
36186;DHT22;22228;53.222;7.446;2022-12-07T07:30:30;2.70;99.90
36186;DHT22;22228;53.222;7.446;2022-12-07T07:32:51;2.80;99.90
36186;DHT22;22228;53.222;7.446;2022-12-07T07:35:13;2.80;99.90
36186;DHT22;22228;53.222;7.446;2022-12-07T07:37:34;2.80;99.90
36186;DHT22;22228;53.222;7.446;2022-12-07T07:39:54;2.70;99.90
36186;DHT22;22228;53.222;7.446;2022-12-07T07:42:15;2.80;99.90
36186;DHT22;22228;53.222;7.446;2022-12-07T07:44:36;2.80;99.90
36186;DHT22;22228;53.222;7.446;2022-12-07T07:46:57;2.80;99.90
36186;DHT22;22228;53.222;7.446;2022-12-07T07:49:17;2.80;99.90
36186;DHT22;22228;53.222;7.446;2022-12-07T07:51:39;2.80;99.90
36186;DHT22;22228;53.222;7.446;2022-12-07T07:54:00;2.80;99.90
36186;DHT22;22228;53.222;7.446;2022-12-07T07:56:20;2.70;99.90
36186;DHT22;22228;53.222;7.446;2022-12-07T07:58:41;2.70;99.90
36186;DHT22;22228;53.222;7.446;2022-12-07T08:01:05;2.60;99.90
36186;DHT22;22228;53.222;7.446;2022-12-07T08:03:26;2.60;99.90
36186;DHT22;22228;53.222;7.446;2022-12-07T08:05:46;2.50;99.90
36186;DHT22;22228;53.222;7.446;2022-12-07T08:08:08;2.50;99.90
36186;DHT22;22228;53.222;7.446;2022-12-07T08:10:28;2.40;99.90
36186;DHT22;22228;53.222;7.446;2022-12-07T08:12:51;2.40;99.90
36186;DHT22;22228;53.222;7.446;2022-12-07T08:15:30;2.40;99.90
36186;DHT22;22228;53.222;7.446;2022-12-07T08:17:51;2.40;99.90
36186;DHT22;22228;53.222;7.446;2022-12-07T08:20:11;2.40;99.90
36186;DHT22;22228;53.222;7.446;2022-12-07T08:22:32;2.40;99.90
36186;DHT22;22228;53.222;7.446;2022-12-07T08:24:54;2.30;99.90
36186;DHT22;22228;53.222;7.446;2022-12-07T08:27:14;2.30;99.90
36186;DHT22;22228;53.222;7.446;2022-12-07T08:29:34;2.30;99.90
36186;DHT22;22228;53.222;7.446;2022-12-07T08:31:55;2.30;99.90
36186;DHT22;22228;53.222;7.446;2022-12-07T08:34:16;2.30;99.90
36186;DHT22;22228;53.222;7.446;2022-12-07T08:36:36;2.30;99.90
36186;DHT22;22228;53.222;7.446;2022-12-07T08:38:56;2.40;99.90
36186;DHT22;22228;53.222;7.446;2022-12-07T08:41:18;2.40;99.90
36186;DHT22;22228;53.222;7.446;2022-12-07T08:43:39;2.50;99.90
36186;DHT22;22228;53.222;7.446;2022-12-07T08:46:06;2.60;99.90
36186;DHT22;22228;53.222;7.446;2022-12-07T08:48:27;2.60;99.90
36186;DHT22;22228;53.222;7.446;2022-12-07T08:50:48;2.70;99.90
36186;DHT22;22228;53.222;7.446;2022-12-07T08:53:08;2.70;99.90
36186;DHT22;22228;53.222;7.446;2022-12-07T08:55:29;2.70;99.90
36186;DHT22;22228;53.222;7.446;2022-12-07T08:57:51;2.80;99.90
36186;DHT22;22228;53.222;7.446;2022-12-07T09:00:13;2.80;99.90
36186;DHT22;22228;53.222;7.446;2022-12-07T09:02:33;2.80;99.90
36186;DHT22;22228;53.222;7.446;2022-12-07T09:04:54;2.90;99.90
36186;DHT22;22228;53.222;7.446;2022-12-07T09:07:15;3.00;99.90
36186;DHT22;22228;53.222;7.446;2022-12-07T09:09:36;3.10;99.90
36186;DHT22;22228;53.222;7.446;2022-12-07T09:11:57;3.30;99.90
36186;DHT22;22228;53.222;7.446;2022-12-07T09:14:19;3.40;99.90
36186;DHT22;22228;53.222;7.446;2022-12-07T09:16:39;3.50;99.90
36186;DHT22;22228;53.222;7.446;2022-12-07T09:19:00;3.60;99.90
36186;DHT22;22228;53.222;7.446;2022-12-07T09:21:20;3.70;99.90
36186;DHT22;22228;53.222;7.446;2022-12-07T09:23:41;3.80;99.90
36186;DHT22;22228;53.222;7.446;2022-12-07T09:26:02;3.90;99.90
36186;DHT22;22228;53.222;7.446;2022-12-07T09:28:23;3.90;99.90
36186;DHT22;22228;53.222;7.446;2022-12-07T09:30:47;4.00;99.90
36186;DHT22;22228;53.222;7.446;2022-12-07T09:33:11;4.10;99.90
36186;DHT22;22228;53.222;7.446;2022-12-07T09:35:31;4.00;99.90
36186;DHT22;22228;53.222;7.446;2022-12-07T09:37:52;4.10;99.90
36186;DHT22;22228;53.222;7.446;2022-12-07T09:40:13;4.10;99.90
36186;DHT22;22228;53.222;7.446;2022-12-07T09:42:36;4.10;99.90
36186;DHT22;22228;53.222;7.446;2022-12-07T09:44:59;4.10;99.90
36186;DHT22;22228;53.222;7.446;2022-12-07T09:47:21;4.20;99.90
36186;DHT22;22228;53.222;7.446;2022-12-07T09:49:42;4.20;99.90
36186;DHT22;22228;53.222;7.446;2022-12-07T09:52:16;4.30;99.90
36186;DHT22;22228;53.222;7.446;2022-12-07T09:54:41;4.30;99.90
36186;DHT22;22228;53.222;7.446;2022-12-07T09:57:03;4.30;99.90
36186;DHT22;22228;53.222;7.446;2022-12-07T09:59:23;4.40;99.90
36186;DHT22;22228;53.222;7.446;2022-12-07T10:01:46;4.50;99.90
36186;DHT22;22228;53.222;7.446;2022-12-07T10:04:12;4.50;99.90
36186;DHT22;22228;53.222;7.446;2022-12-07T10:06:34;4.50;99.90
36186;DHT22;22228;53.222;7.446;2022-12-07T10:08:54;4.60;99.90
36186;DHT22;22228;53.222;7.446;2022-12-07T10:11:15;4.60;99.90
36186;DHT22;22228;53.222;7.446;2022-12-07T10:13:41;4.60;99.90
36186;DHT22;22228;53.222;7.446;2022-12-07T10:16:03;4.70;99.90
36186;DHT22;22228;53.222;7.446;2022-12-07T10:18:30;4.60;99.90
36186;DHT22;22228;53.222;7.446;2022-12-07T10:21:01;4.70;99.90
36186;DHT22;22228;53.222;7.446;2022-12-07T10:23:22;4.70;99.90
36186;DHT22;22228;53.222;7.446;2022-12-07T10:25:43;4.80;99.90
36186;DHT22;22228;53.222;7.446;2022-12-07T10:28:15;4.80;99.90
36186;DHT22;22228;53.222;7.446;2022-12-07T10:30:47;4.80;99.90
36186;DHT22;22228;53.222;7.446;2022-12-07T10:33:27;4.90;99.90
36186;DHT22;22228;53.222;7.446;2022-12-07T10:35:48;5.00;99.90
36186;DHT22;22228;53.222;7.446;2022-12-07T10:38:16;5.00;99.90
36186;DHT22;22228;53.222;7.446;2022-12-07T10:40:39;4.90;99.90
36186;DHT22;22228;53.222;7.446;2022-12-07T10:43:01;4.90;99.90
36186;DHT22;22228;53.222;7.446;2022-12-07T10:45:24;4.90;99.90
36186;DHT22;22228;53.222;7.446;2022-12-07T10:47:48;4.90;99.90
36186;DHT22;22228;53.222;7.446;2022-12-07T10:53:52;4.90;99.90
36186;DHT22;22228;53.222;7.446;2022-12-07T10:56:38;4.90;99.90
36186;DHT22;22228;53.222;7.446;2022-12-07T10:59:19;4.90;99.90
36186;DHT22;22228;53.222;7.446;2022-12-07T11:01:47;4.80;99.90
36186;DHT22;22228;53.222;7.446;2022-12-07T11:04:21;4.80;99.90
36186;DHT22;22228;53.222;7.446;2022-12-07T11:06:48;4.90;99.90
36186;DHT22;22228;53.222;7.446;2022-12-07T11:12:23;4.90;99.90
36186;DHT22;22228;53.222;7.446;2022-12-07T11:14:51;4.90;99.90
36186;DHT22;22228;53.222;7.446;2022-12-07T11:17:20;5.00;99.90
36186;DHT22;22228;53.222;7.446;2022-12-07T11:19:52;5.00;99.90
36186;DHT22;22228;53.222;7.446;2022-12-07T11:22:19;5.00;99.90
36186;DHT22;22228;53.222;7.446;2022-12-07T11:24:48;5.10;99.90
36186;DHT22;22228;53.222;7.446;2022-12-07T11:27:22;5.20;99.90
36186;DHT22;22228;53.222;7.446;2022-12-07T11:30:02;5.20;99.90
36186;DHT22;22228;53.222;7.446;2022-12-07T11:32:40;5.30;99.90
36186;DHT22;22228;53.222;7.446;2022-12-07T11:35:08;5.30;99.90
36186;DHT22;22228;53.222;7.446;2022-12-07T11:37:33;5.40;99.90
36186;DHT22;22228;53.222;7.446;2022-12-07T11:39:59;5.50;99.90
36186;DHT22;22228;53.222;7.446;2022-12-07T11:42:25;5.50;99.90
36186;DHT22;22228;53.222;7.446;2022-12-07T11:44:50;5.40;99.90
36186;DHT22;22228;53.222;7.446;2022-12-07T11:47:17;5.40;99.90
36186;DHT22;22228;53.222;7.446;2022-12-07T11:49:43;5.40;99.90
36186;DHT22;22228;53.222;7.446;2022-12-07T11:52:06;5.40;99.90
36186;DHT22;22228;53.222;7.446;2022-12-07T11:54:35;5.50;99.90
36186;DHT22;22228;53.222;7.446;2022-12-07T11:57:02;5.60;99.90
36186;DHT22;22228;53.222;7.446;2022-12-07T11:59:29;5.70;99.90
36186;DHT22;22228;53.222;7.446;2022-12-07T12:01:55;5.80;99.90
36186;DHT22;22228;53.222;7.446;2022-12-07T12:04:33;5.90;99.90
36186;DHT22;22228;53.222;7.446;2022-12-07T12:06:55;6.00;99.90
36186;DHT22;22228;53.222;7.446;2022-12-07T12:09:17;6.10;99.90
36186;DHT22;22228;53.222;7.446;2022-12-07T12:11:51;6.10;99.90
36186;DHT22;22228;53.222;7.446;2022-12-07T12:14:34;6.10;99.90
36186;DHT22;22228;53.222;7.446;2022-12-07T12:17:11;6.10;99.90
36186;DHT22;22228;53.222;7.446;2022-12-07T12:19:40;6.10;99.90
36186;DHT22;22228;53.222;7.446;2022-12-07T12:22:32;6.10;99.90
36186;DHT22;22228;53.222;7.446;2022-12-07T12:24:53;6.10;99.90
36186;DHT22;22228;53.222;7.446;2022-12-07T12:27:23;6.10;99.90
36186;DHT22;22228;53.222;7.446;2022-12-07T12:29:53;6.10;99.90
36186;DHT22;22228;53.222;7.446;2022-12-07T12:32:16;6.00;99.90
36186;DHT22;22228;53.222;7.446;2022-12-07T12:34:42;6.00;99.90
36186;DHT22;22228;53.222;7.446;2022-12-07T12:37:39;5.90;99.90
36186;DHT22;22228;53.222;7.446;2022-12-07T12:40:43;6.00;99.90
36186;DHT22;22228;53.222;7.446;2022-12-07T12:43:42;6.00;99.90
36186;DHT22;22228;53.222;7.446;2022-12-07T12:55:15;6.20;99.90
36186;DHT22;22228;53.222;7.446;2022-12-07T12:57:39;6.10;99.90
36186;DHT22;22228;53.222;7.446;2022-12-07T13:00:01;6.10;99.90
36186;DHT22;22228;53.222;7.446;2022-12-07T13:02:25;6.10;99.90
36186;DHT22;22228;53.222;7.446;2022-12-07T13:04:53;6.00;99.90
36186;DHT22;22228;53.222;7.446;2022-12-07T13:07:53;5.90;99.90
36186;DHT22;22228;53.222;7.446;2022-12-07T13:10:40;5.90;99.90
36186;DHT22;22228;53.222;7.446;2022-12-07T13:13:04;5.80;99.90
36186;DHT22;22228;53.222;7.446;2022-12-07T13:15:45;5.90;99.90
36186;DHT22;22228;53.222;7.446;2022-12-07T13:18:24;5.80;99.90
36186;DHT22;22228;53.222;7.446;2022-12-07T13:20:54;5.80;99.90
36186;DHT22;22228;53.222;7.446;2022-12-07T13:23:18;5.70;99.90
36186;DHT22;22228;53.222;7.446;2022-12-07T13:25:48;5.60;99.90
36186;DHT22;22228;53.222;7.446;2022-12-07T13:28:15;5.40;99.90
36186;DHT22;22228;53.222;7.446;2022-12-07T13:30:46;5.40;99.90
36186;DHT22;22228;53.222;7.446;2022-12-07T13:33:09;5.30;99.90
36186;DHT22;22228;53.222;7.446;2022-12-07T13:35:32;5.30;99.90
36186;DHT22;22228;53.222;7.446;2022-12-07T13:38:15;5.20;99.90
36186;DHT22;22228;53.222;7.446;2022-12-07T13:40:36;5.20;99.90
36186;DHT22;22228;53.222;7.446;2022-12-07T13:42:59;5.20;99.90
36186;DHT22;22228;53.222;7.446;2022-12-07T13:45:23;5.20;99.90
36186;DHT22;22228;53.222;7.446;2022-12-07T13:48:05;5.20;99.90
36186;DHT22;22228;53.222;7.446;2022-12-07T13:50:28;5.20;99.90
36186;DHT22;22228;53.222;7.446;2022-12-07T13:52:50;5.20;99.90
36186;DHT22;22228;53.222;7.446;2022-12-07T13:55:15;5.10;99.90
36186;DHT22;22228;53.222;7.446;2022-12-07T13:57:36;5.10;99.90
36186;DHT22;22228;53.222;7.446;2022-12-07T14:00:15;5.10;99.90
36186;DHT22;22228;53.222;7.446;2022-12-07T14:02:55;5.00;99.90
36186;DHT22;22228;53.222;7.446;2022-12-07T14:05:23;4.90;99.90
36186;DHT22;22228;53.222;7.446;2022-12-07T14:07:58;4.80;99.90
36186;DHT22;22228;53.222;7.446;2022-12-07T14:10:26;4.70;99.90
36186;DHT22;22228;53.222;7.446;2022-12-07T14:13:28;4.70;99.90
36186;DHT22;22228;53.222;7.446;2022-12-07T14:15:59;4.60;99.90
36186;DHT22;22228;53.222;7.446;2022-12-07T14:18:26;4.50;99.90
36186;DHT22;22228;53.222;7.446;2022-12-07T14:20:51;4.50;99.90
36186;DHT22;22228;53.222;7.446;2022-12-07T14:23:44;4.50;99.90
36186;DHT22;22228;53.222;7.446;2022-12-07T14:26:30;4.40;99.90
36186;DHT22;22228;53.222;7.446;2022-12-07T14:28:54;4.40;99.90
36186;DHT22;22228;53.222;7.446;2022-12-07T14:31:41;4.40;99.90
36186;DHT22;22228;53.222;7.446;2022-12-07T14:34:14;4.40;99.90
36186;DHT22;22228;53.222;7.446;2022-12-07T14:36:40;4.30;99.90
36186;DHT22;22228;53.222;7.446;2022-12-07T14:39:26;4.30;99.90
36186;DHT22;22228;53.222;7.446;2022-12-07T14:41:50;4.20;99.90
36186;DHT22;22228;53.222;7.446;2022-12-07T14:44:23;4.20;99.90
36186;DHT22;22228;53.222;7.446;2022-12-07T14:46:55;4.10;99.90
36186;DHT22;22228;53.222;7.446;2022-12-07T14:49:18;4.00;99.90
36186;DHT22;22228;53.222;7.446;2022-12-07T14:51:39;4.00;99.90
36186;DHT22;22228;53.222;7.446;2022-12-07T14:54:00;4.00;99.90
36186;DHT22;22228;53.222;7.446;2022-12-07T14:56:21;4.00;99.90
36186;DHT22;22228;53.222;7.446;2022-12-07T14:58:53;4.00;99.90
36186;DHT22;22228;53.222;7.446;2022-12-07T15:01:24;4.00;99.90
36186;DHT22;22228;53.222;7.446;2022-12-07T15:04:14;4.00;99.90
36186;DHT22;22228;53.222;7.446;2022-12-07T15:06:35;3.90;99.90
36186;DHT22;22228;53.222;7.446;2022-12-07T15:09:06;3.90;99.90
36186;DHT22;22228;53.222;7.446;2022-12-07T15:11:26;3.80;99.90
36186;DHT22;22228;53.222;7.446;2022-12-07T15:13:47;3.80;99.90
36186;DHT22;22228;53.222;7.446;2022-12-07T15:16:25;3.70;99.90
36186;DHT22;22228;53.222;7.446;2022-12-07T15:18:49;3.60;99.90
36186;DHT22;22228;53.222;7.446;2022-12-07T15:21:12;3.60;99.90
36186;DHT22;22228;53.222;7.446;2022-12-07T15:23:34;3.60;99.90
36186;DHT22;22228;53.222;7.446;2022-12-07T15:26:10;3.70;99.90
36186;DHT22;22228;53.222;7.446;2022-12-07T15:28:31;3.70;99.90
36186;DHT22;22228;53.222;7.446;2022-12-07T15:30:51;3.70;99.90
36186;DHT22;22228;53.222;7.446;2022-12-07T15:33:13;3.70;99.90
36186;DHT22;22228;53.222;7.446;2022-12-07T15:35:33;3.70;99.90
36186;DHT22;22228;53.222;7.446;2022-12-07T15:37:55;3.60;99.90
36186;DHT22;22228;53.222;7.446;2022-12-07T15:40:16;3.50;99.90
36186;DHT22;22228;53.222;7.446;2022-12-07T15:42:36;3.50;99.90
36186;DHT22;22228;53.222;7.446;2022-12-07T15:44:57;3.40;99.90
36186;DHT22;22228;53.222;7.446;2022-12-07T15:47:23;3.50;99.90
36186;DHT22;22228;53.222;7.446;2022-12-07T15:49:44;3.50;99.90
36186;DHT22;22228;53.222;7.446;2022-12-07T15:52:04;3.50;99.90
36186;DHT22;22228;53.222;7.446;2022-12-07T15:54:27;3.00;99.90
36186;DHT22;22228;53.222;7.446;2022-12-07T15:56:49;2.40;99.90
36186;DHT22;22228;53.222;7.446;2022-12-07T15:59:09;2.00;99.90
36186;DHT22;22228;53.222;7.446;2022-12-07T16:01:30;1.90;99.90
36186;DHT22;22228;53.222;7.446;2022-12-07T16:03:50;1.80;99.90
36186;DHT22;22228;53.222;7.446;2022-12-07T16:06:11;1.80;99.90
36186;DHT22;22228;53.222;7.446;2022-12-07T16:08:32;1.90;99.90
36186;DHT22;22228;53.222;7.446;2022-12-07T16:10:54;1.90;99.90
36186;DHT22;22228;53.222;7.446;2022-12-07T16:13:14;2.00;99.90
36186;DHT22;22228;53.222;7.446;2022-12-07T16:15:38;2.00;99.90
36186;DHT22;22228;53.222;7.446;2022-12-07T16:17:58;2.00;99.90
36186;DHT22;22228;53.222;7.446;2022-12-07T16:20:19;1.90;99.90
36186;DHT22;22228;53.222;7.446;2022-12-07T16:22:39;1.90;99.90
36186;DHT22;22228;53.222;7.446;2022-12-07T16:24:59;1.90;99.90
36186;DHT22;22228;53.222;7.446;2022-12-07T16:27:21;2.00;99.90
36186;DHT22;22228;53.222;7.446;2022-12-07T16:29:42;1.90;99.90
36186;DHT22;22228;53.222;7.446;2022-12-07T16:32:02;1.90;99.90
36186;DHT22;22228;53.222;7.446;2022-12-07T16:34:23;1.90;99.90
36186;DHT22;22228;53.222;7.446;2022-12-07T16:36:44;2.00;99.90
36186;DHT22;22228;53.222;7.446;2022-12-07T16:39:05;1.90;99.90
36186;DHT22;22228;53.222;7.446;2022-12-07T16:41:25;1.90;99.90
36186;DHT22;22228;53.222;7.446;2022-12-07T16:43:47;1.90;99.90
36186;DHT22;22228;53.222;7.446;2022-12-07T16:46:08;1.90;99.90
36186;DHT22;22228;53.222;7.446;2022-12-07T16:48:28;1.90;99.90
36186;DHT22;22228;53.222;7.446;2022-12-07T16:50:49;1.90;99.90
36186;DHT22;22228;53.222;7.446;2022-12-07T16:53:13;2.00;99.90
36186;DHT22;22228;53.222;7.446;2022-12-07T16:55:36;2.00;99.90
36186;DHT22;22228;53.222;7.446;2022-12-07T16:57:56;2.10;99.90
36186;DHT22;22228;53.222;7.446;2022-12-07T17:00:19;2.10;99.90
36186;DHT22;22228;53.222;7.446;2022-12-07T17:02:39;2.20;99.90
36186;DHT22;22228;53.222;7.446;2022-12-07T17:05:00;2.30;99.90
36186;DHT22;22228;53.222;7.446;2022-12-07T17:07:20;2.30;99.90
36186;DHT22;22228;53.222;7.446;2022-12-07T17:09:41;2.30;99.90
36186;DHT22;22228;53.222;7.446;2022-12-07T17:12:02;2.30;99.90
36186;DHT22;22228;53.222;7.446;2022-12-07T17:14:24;2.30;99.90
36186;DHT22;22228;53.222;7.446;2022-12-07T17:17:03;2.30;99.90
36186;DHT22;22228;53.222;7.446;2022-12-07T17:19:25;2.30;99.90
36186;DHT22;22228;53.222;7.446;2022-12-07T17:21:45;2.30;99.90
36186;DHT22;22228;53.222;7.446;2022-12-07T17:24:09;2.20;99.90
36186;DHT22;22228;53.222;7.446;2022-12-07T17:26:30;2.20;99.90
36186;DHT22;22228;53.222;7.446;2022-12-07T17:28:51;2.20;99.90
36186;DHT22;22228;53.222;7.446;2022-12-07T17:31:13;2.20;99.90
36186;DHT22;22228;53.222;7.446;2022-12-07T17:33:35;2.10;99.90
36186;DHT22;22228;53.222;7.446;2022-12-07T17:35:56;2.20;99.90
36186;DHT22;22228;53.222;7.446;2022-12-07T17:38:16;2.20;99.90
36186;DHT22;22228;53.222;7.446;2022-12-07T17:40:37;2.20;99.90
36186;DHT22;22228;53.222;7.446;2022-12-07T17:42:57;2.20;99.90
36186;DHT22;22228;53.222;7.446;2022-12-07T17:45:18;2.20;99.90
36186;DHT22;22228;53.222;7.446;2022-12-07T17:47:38;2.20;99.90
36186;DHT22;22228;53.222;7.446;2022-12-07T17:50:00;2.20;99.90
36186;DHT22;22228;53.222;7.446;2022-12-07T17:52:22;2.20;99.90
36186;DHT22;22228;53.222;7.446;2022-12-07T17:55:00;2.10;99.90
36186;DHT22;22228;53.222;7.446;2022-12-07T17:57:21;2.10;99.90
36186;DHT22;22228;53.222;7.446;2022-12-07T17:59:41;2.00;99.90
36186;DHT22;22228;53.222;7.446;2022-12-07T18:02:03;2.00;99.90
36186;DHT22;22228;53.222;7.446;2022-12-07T18:04:23;2.00;99.90
36186;DHT22;22228;53.222;7.446;2022-12-07T18:06:45;1.90;99.90
36186;DHT22;22228;53.222;7.446;2022-12-07T18:09:06;1.90;99.90
36186;DHT22;22228;53.222;7.446;2022-12-07T18:11:26;1.80;99.90
36186;DHT22;22228;53.222;7.446;2022-12-07T18:13:47;1.80;99.90
36186;DHT22;22228;53.222;7.446;2022-12-07T18:16:11;1.70;99.90
36186;DHT22;22228;53.222;7.446;2022-12-07T18:18:32;1.70;99.90
36186;DHT22;22228;53.222;7.446;2022-12-07T18:20:52;1.70;99.90
36186;DHT22;22228;53.222;7.446;2022-12-07T18:23:14;1.70;99.90
36186;DHT22;22228;53.222;7.446;2022-12-07T18:25:35;1.80;99.90